Sailor Springs, Illinois
Current Conditions -  °F | °C
As of 3:55 PM on Saturday 25 Oct 2014 (Local Time) from KFOA Reporting Station
Clear Clear  
Wind Chill: 78°   Ceiling: Unl
Heat Index: 79°   Visibility: 10mi
Dew Point: 51°   Wind: 6mph
Humidity: 38%   Direction: 310°NW
Pressure: 29.99"   Gusts: NA
Location:  38.76°N, 88.36°W
Report Text: KFOA 252055Z AUTO 31005KT 10SM CLR 26/10 A2999 RMK AO2 T02550103
Loading
Personal Weather Stations






























Interactive Weather Map
Tropical Storm Tracking
New forecast layout! Learn more

10-Day Weather Forecast

Advertisements
Track Severe Weather on mobile